Zion, Arkansas
Current Conditions -  °F | °C
As of 12:55 AM on Thursday 27 Nov 2014 (Local Time) from KBVX Reporting Station
Broken Clouds Broken Clouds  
Wind Chill: 32°   Ceiling: 3400
Heat Index: 39°   Visibility: 10mi
Dew Point: 27°   Wind: 10mph
Humidity: 61%   Direction: 300°WNW
Pressure: 30.28"   Gusts: 17mph
Location:  36.0615°N, 91.9058°W
Report Text: KBVX 270655Z AUTO 30009G15KT 230V360 10SM BKN034 04/M03 A3028 RMK AO1
Loading
Personal Weather Stations






























Interactive Weather Map New forecast layout! Learn more

10-Day Weather Forecast

Advertisements
Track Severe Weather on mobile